sensor_id;sensor_type;location;lat;lon;timestamp;pressure;altitude;pressure_sealevel;temperature;humidity
44920;BME280;30655;53.094;6.072;2022-09-17T00:02:20;101111.72;;;12.19;73.44
44920;BME280;30655;53.094;6.072;2022-09-17T00:04:48;101122.56;;;12.19;73.37
44920;BME280;30655;53.094;6.072;2022-09-17T00:07:14;101096.00;;;12.06;73.81
44920;BME280;30655;53.094;6.072;2022-09-17T00:09:43;101111.97;;;12.23;73.02
44920;BME280;30655;53.094;6.072;2022-09-17T00:12:13;101041.81;;;11.65;73.11
44920;BME280;30655;53.094;6.072;2022-09-17T00:14:42;101041.81;;;11.76;73.42
44920;BME280;30655;53.094;6.072;2022-09-17T00:17:10;101097.88;;;12.05;73.73
44920;BME280;30655;53.094;6.072;2022-09-17T00:19:38;101037.19;;;11.66;73.78
44920;BME280;30655;53.094;6.072;2022-09-17T00:22:06;101020.41;;;11.49;73.70
44920;BME280;30655;53.094;6.072;2022-09-17T00:24:34;101094.91;;;11.87;74.16
44920;BME280;30655;53.094;6.072;2022-09-17T00:27:03;101053.97;;;11.63;74.61
44920;BME280;30655;53.094;6.072;2022-09-17T00:29:30;101063.72;;;11.59;74.55
44920;BME280;30655;53.094;6.072;2022-09-17T00:31:56;101070.50;;;11.72;74.54
44920;BME280;30655;53.094;6.072;2022-09-17T00:34:28;101175.13;;;12.43;74.27
44920;BME280;30655;53.094;6.072;2022-09-17T00:36:57;101100.31;;;11.82;74.56
44920;BME280;30655;53.094;6.072;2022-09-17T00:39:25;101035.81;;;11.48;74.22
44920;BME280;30655;53.094;6.072;2022-09-17T00:41:54;101139.63;;;12.10;73.73
44920;BME280;30655;53.094;6.072;2022-09-17T00:44:52;101129.88;;;11.98;73.89
44920;BME280;30655;53.094;6.072;2022-09-17T00:47:24;101054.19;;;11.41;74.54
44920;BME280;30655;53.094;6.072;2022-09-17T00:49:56;101180.78;;;12.06;74.96
44920;BME280;30655;53.094;6.072;2022-09-17T00:52:34;101033.56;;;11.00;75.90
44920;BME280;30655;53.094;6.072;2022-09-17T00:55:12;101217.41;;;12.14;77.52
44920;BME280;30655;53.094;6.072;2022-09-17T00:57:41;101193.25;;;12.02;76.95
44920;BME280;30655;53.094;6.072;2022-09-17T01:00:26;101244.50;;;12.19;77.77
44920;BME280;30655;53.094;6.072;2022-09-17T01:03:13;101024.59;;;10.94;76.85
44920;BME280;30655;53.094;6.072;2022-09-17T01:06:16;101192.16;;;11.93;77.76
44920;BME280;30655;53.094;6.072;2022-09-17T01:09:20;101225.78;;;12.07;78.58
44920;BME280;30655;53.094;6.072;2022-09-17T01:12:24;101041.13;;;11.03;77.69
44920;BME280;30655;53.094;6.072;2022-09-17T01:15:15;101087.25;;;11.43;77.15
44920;BME280;30655;53.094;6.072;2022-09-17T01:18:23;101208.47;;;12.19;77.51
44920;BME280;30655;53.094;6.072;2022-09-17T01:21:31;101146.91;;;11.84;77.57
44920;BME280;30655;53.094;6.072;2022-09-17T01:24:51;101066.38;;;11.34;76.72
44920;BME280;30655;53.094;6.072;2022-09-17T01:28:07;101212.50;;;12.16;77.64
44920;BME280;30655;53.094;6.072;2022-09-17T01:33:58;101081.28;;;11.46;77.07
44920;BME280;30655;53.094;6.072;2022-09-17T01:39:27;101201.69;;;12.21;77.20
44920;BME280;30655;53.094;6.072;2022-09-17T01:41:57;101148.00;;;11.88;76.88
44920;BME280;30655;53.094;6.072;2022-09-17T01:44:35;101207.66;;;12.18;76.52
44920;BME280;30655;53.094;6.072;2022-09-17T01:47:17;101155.56;;;11.86;76.29
44920;BME280;30655;53.094;6.072;2022-09-17T01:49:47;101185.66;;;11.94;76.21
44920;BME280;30655;53.094;6.072;2022-09-17T01:52:18;101068.19;;;11.08;75.71
44920;BME280;30655;53.094;6.072;2022-09-17T01:54:56;101225.78;;;12.13;75.13
44920;BME280;30655;53.094;6.072;2022-09-17T01:57:34;101037.06;;;11.00;74.87
44920;BME280;30655;53.094;6.072;2022-09-17T02:00:07;101110.00;;;11.52;74.67
44920;BME280;30655;53.094;6.072;2022-09-17T02:02:45;101131.66;;;11.57;74.30
44920;BME280;30655;53.094;6.072;2022-09-17T02:05:16;101088.22;;;11.17;74.55
44920;BME280;30655;53.094;6.072;2022-09-17T02:07:49;101051.94;;;10.98;74.36
44920;BME280;30655;53.094;6.072;2022-09-17T02:10:33;101228.75;;;12.11;74.25
44920;BME280;30655;53.094;6.072;2022-09-17T02:13:07;101258.56;;;12.06;74.27
44920;BME280;30655;53.094;6.072;2022-09-17T02:15:53;101189.53;;;11.41;75.61
44920;BME280;30655;53.094;6.072;2022-09-17T02:18:27;101090.25;;;10.79;76.31
44920;BME280;30655;53.094;6.072;2022-09-17T02:21:02;101127.75;;;11.18;76.61
44920;BME280;30655;53.094;6.072;2022-09-17T02:23:40;101153.25;;;11.37;77.27
44920;BME280;30655;53.094;6.072;2022-09-17T02:26:13;101211.81;;;11.63;78.38
44920;BME280;30655;53.094;6.072;2022-09-17T02:28:46;101194.97;;;11.51;77.53
44920;BME280;30655;53.094;6.072;2022-09-17T02:31:15;101107.13;;;11.02;77.47
44920;BME280;30655;53.094;6.072;2022-09-17T02:33:56;101230.25;;;11.72;77.61
44920;BME280;30655;53.094;6.072;2022-09-17T02:36:29;101188.47;;;11.42;78.04
44920;BME280;30655;53.094;6.072;2022-09-17T02:39:03;101042.81;;;10.57;78.13
44920;BME280;30655;53.094;6.072;2022-09-17T02:41:42;101039.88;;;10.58;78.25
44920;BME280;30655;53.094;6.072;2022-09-17T02:44:37;101232.38;;;11.59;79.78
44920;BME280;30655;53.094;6.072;2022-09-17T02:50:45;101134.09;;;10.87;79.09
44920;BME280;30655;53.094;6.072;2022-09-17T02:53:33;101222.38;;;11.60;78.29
44920;BME280;30655;53.094;6.072;2022-09-17T02:56:10;101229.69;;;11.64;78.06
44920;BME280;30655;53.094;6.072;2022-09-17T02:58:45;101080.75;;;10.72;77.96
44920;BME280;30655;53.094;6.072;2022-09-17T03:01:20;101083.81;;;10.86;77.35
44920;BME280;30655;53.094;6.072;2022-09-17T03:03:52;101040.41;;;10.55;77.31
44920;BME280;30655;53.094;6.072;2022-09-17T03:06:24;101231.91;;;11.73;77.09
44920;BME280;30655;53.094;6.072;2022-09-17T03:08:51;101218.84;;;11.59;77.49
44920;BME280;30655;53.094;6.072;2022-09-17T03:11:18;101164.56;;;11.19;77.10
44920;BME280;30655;53.094;6.072;2022-09-17T03:13:53;101174.66;;;11.44;76.91
44920;BME280;30655;53.094;6.072;2022-09-17T03:16:20;101123.09;;;11.03;77.15
44920;BME280;30655;53.094;6.072;2022-09-17T03:18:47;101059.69;;;10.74;76.54
44920;BME280;30655;53.094;6.072;2022-09-17T03:21:21;101038.19;;;10.52;75.83
44920;BME280;30655;53.094;6.072;2022-09-17T03:23:49;101168.97;;;11.35;75.40
44920;BME280;30655;53.094;6.072;2022-09-17T03:26:20;101087.56;;;10.85;74.44
44920;BME280;30655;53.094;6.072;2022-09-17T03:28:50;101079.41;;;10.74;74.31
44920;BME280;30655;53.094;6.072;2022-09-17T03:31:20;101216.41;;;11.58;73.68
44920;BME280;30655;53.094;6.072;2022-09-17T03:33:50;101212.84;;;11.52;72.88
44920;BME280;30655;53.094;6.072;2022-09-17T03:36:18;101172.47;;;11.31;72.74
44920;BME280;30655;53.094;6.072;2022-09-17T03:38:45;101149.94;;;11.20;73.07
44920;BME280;30655;53.094;6.072;2022-09-17T03:41:16;101172.75;;;11.39;72.67
44920;BME280;30655;53.094;6.072;2022-09-17T03:43:43;101253.81;;;11.71;71.49
44920;BME280;30655;53.094;6.072;2022-09-17T03:46:11;101193.88;;;11.42;72.91
44920;BME280;30655;53.094;6.072;2022-09-17T03:48:39;101176.53;;;11.38;72.96
44920;BME280;30655;53.094;6.072;2022-09-17T03:51:06;101247.09;;;11.79;72.78
44920;BME280;30655;53.094;6.072;2022-09-17T03:53:33;101210.22;;;11.68;72.92
44920;BME280;30655;53.094;6.072;2022-09-17T03:56:05;101059.91;;;10.67;72.51
44920;BME280;30655;53.094;6.072;2022-09-17T03:58:43;101072.91;;;10.70;72.54
44920;BME280;30655;53.094;6.072;2022-09-17T04:01:13;101235.44;;;11.73;72.76
44920;BME280;30655;53.094;6.072;2022-09-17T04:03:40;101144.78;;;11.18;72.72
44920;BME280;30655;53.094;6.072;2022-09-17T04:06:09;101100.16;;;10.64;73.97
44920;BME280;30655;53.094;6.072;2022-09-17T04:08:45;101188.69;;;11.36;75.37
44920;BME280;30655;53.094;6.072;2022-09-17T04:11:31;101203.28;;;11.25;76.34
44920;BME280;30655;53.094;6.072;2022-09-17T04:14:16;101057.00;;;10.32;76.73
44920;BME280;30655;53.094;6.072;2022-09-17T04:16:47;101250.47;;;11.49;76.37
44920;BME280;30655;53.094;6.072;2022-09-17T04:19:18;101147.28;;;10.78;76.50
44920;BME280;30655;53.094;6.072;2022-09-17T04:21:49;101189.28;;;10.91;77.66
44920;BME280;30655;53.094;6.072;2022-09-17T04:24:18;101196.53;;;10.80;78.19
44920;BME280;30655;53.094;6.072;2022-09-17T04:26:50;101082.38;;;10.26;77.56
44920;BME280;30655;53.094;6.072;2022-09-17T04:29:20;101207.28;;;11.17;77.04
44920;BME280;30655;53.094;6.072;2022-09-17T04:31:54;101175.84;;;11.01;77.57
44920;BME280;30655;53.094;6.072;2022-09-17T04:34:35;101103.59;;;10.49;77.62
44920;BME280;30655;53.094;6.072;2022-09-17T04:37:06;101237.09;;;11.27;78.13
44920;BME280;30655;53.094;6.072;2022-09-17T04:39:34;101074.53;;;10.24;77.16
44920;BME280;30655;53.094;6.072;2022-09-17T04:42:04;101198.78;;;10.98;76.37
44920;BME280;30655;53.094;6.072;2022-09-17T04:44:35;101156.19;;;10.73;76.18
44920;BME280;30655;53.094;6.072;2022-09-17T04:47:05;101249.56;;;11.28;75.98
44920;BME280;30655;53.094;6.072;2022-09-17T04:49:49;101233.50;;;11.16;75.35
44920;BME280;30655;53.094;6.072;2022-09-17T04:52:18;101183.22;;;10.73;75.44
44920;BME280;30655;53.094;6.072;2022-09-17T04:54:50;101213.91;;;10.94;75.74
44920;BME280;30655;53.094;6.072;2022-09-17T04:57:17;101213.69;;;11.01;75.37
44920;BME280;30655;53.094;6.072;2022-09-17T04:59:46;101188.09;;;10.76;75.22
44920;BME280;30655;53.094;6.072;2022-09-17T05:02:14;101138.75;;;10.54;75.31
44920;BME280;30655;53.094;6.072;2022-09-17T05:04:41;101253.84;;;11.19;74.61
44920;BME280;30655;53.094;6.072;2022-09-17T05:07:11;101095.75;;;10.11;75.11
44920;BME280;30655;53.094;6.072;2022-09-17T05:09:40;101169.59;;;10.58;75.20
44920;BME280;30655;53.094;6.072;2022-09-17T05:12:08;101204.59;;;10.75;75.69
44920;BME280;30655;53.094;6.072;2022-09-17T05:14:35;101121.09;;;10.10;75.52
44920;BME280;30655;53.094;6.072;2022-09-17T05:17:03;101262.66;;;11.04;76.02
44920;BME280;30655;53.094;6.072;2022-09-17T05:19:30;101217.22;;;10.64;75.84
44920;BME280;30655;53.094;6.072;2022-09-17T05:21:57;101143.34;;;10.17;75.96
44920;BME280;30655;53.094;6.072;2022-09-17T05:24:26;101243.94;;;10.98;75.87
44920;BME280;30655;53.094;6.072;2022-09-17T05:26:55;101065.00;;;9.85;75.88
44920;BME280;30655;53.094;6.072;2022-09-17T05:29:25;101210.00;;;10.75;75.92
44920;BME280;30655;53.094;6.072;2022-09-17T05:31:54;101275.16;;;11.10;75.89
44920;BME280;30655;53.094;6.072;2022-09-17T05:34:23;101098.13;;;10.07;76.04
44920;BME280;30655;53.094;6.072;2022-09-17T05:36:50;101235.78;;;10.88;76.34
44920;BME280;30655;53.094;6.072;2022-09-17T05:39:18;101183.25;;;10.42;76.06
44920;BME280;30655;53.094;6.072;2022-09-17T05:41:45;101248.75;;;10.86;76.11
44920;BME280;30655;53.094;6.072;2022-09-17T05:44:12;101263.13;;;10.96;76.13
44920;BME280;30655;53.094;6.072;2022-09-17T05:46:43;101120.59;;;10.13;76.02
44920;BME280;30655;53.094;6.072;2022-09-17T05:49:10;101170.09;;;10.50;76.16
44920;BME280;30655;53.094;6.072;2022-09-17T05:51:39;101131.09;;;10.36;76.28
44920;BME280;30655;53.094;6.072;2022-09-17T05:54:06;101129.44;;;10.35;76.33
44920;BME280;30655;53.094;6.072;2022-09-17T05:56:33;101204.41;;;10.92;75.90
44920;BME280;30655;53.094;6.072;2022-09-17T05:59:00;101180.63;;;10.89;76.00
44920;BME280;30655;53.094;6.072;2022-09-17T06:01:27;101169.75;;;10.78;75.63
44920;BME280;30655;53.094;6.072;2022-09-17T06:03:54;101114.50;;;10.64;75.96
44920;BME280;30655;53.094;6.072;2022-09-17T06:06:21;101243.69;;;11.46;75.69
44920;BME280;30655;53.094;6.072;2022-09-17T06:08:50;101123.13;;;10.61;75.73
44920;BME280;30655;53.094;6.072;2022-09-17T06:11:20;101161.75;;;10.99;75.82
44920;BME280;30655;53.094;6.072;2022-09-17T06:13:51;101171.75;;;10.98;75.85
44920;BME280;30655;53.094;6.072;2022-09-17T06:16:22;101115.53;;;10.58;75.70
44920;BME280;30655;53.094;6.072;2022-09-17T06:18:49;101201.81;;;11.07;76.11
44920;BME280;30655;53.094;6.072;2022-09-17T06:21:19;101305.50;;;11.59;76.16
44920;BME280;30655;53.094;6.072;2022-09-17T06:23:46;101260.94;;;11.30;76.12
44920;BME280;30655;53.094;6.072;2022-09-17T06:26:15;101319.63;;;11.72;76.29
44920;BME280;30655;53.094;6.072;2022-09-17T06:28:45;101189.25;;;10.86;76.46
44920;BME280;30655;53.094;6.072;2022-09-17T06:33:59;101317.97;;;11.71;76.49
44920;BME280;30655;53.094;6.072;2022-09-17T06:36:41;101147.44;;;10.61;76.90
44920;BME280;30655;53.094;6.072;2022-09-17T06:39:10;101293.84;;;11.59;76.84
44920;BME280;30655;53.094;6.072;2022-09-17T06:41:48;101234.94;;;11.24;77.17
44920;BME280;30655;53.094;6.072;2022-09-17T06:44:18;101228.13;;;11.21;77.11
44920;BME280;30655;53.094;6.072;2022-09-17T06:46:51;101150.50;;;10.70;77.28
44920;BME280;30655;53.094;6.072;2022-09-17T06:49:43;101140.72;;;10.64;77.73
44920;BME280;30655;53.094;6.072;2022-09-17T06:52:21;101219.50;;;11.25;77.64
44920;BME280;30655;53.094;6.072;2022-09-17T06:55:02;101298.31;;;11.80;77.57
44920;BME280;30655;53.094;6.072;2022-09-17T06:57:43;101151.41;;;10.86;77.90
44920;BME280;30655;53.094;6.072;2022-09-17T07:00:21;101276.63;;;11.75;78.00
44920;BME280;30655;53.094;6.072;2022-09-17T07:06:35;101162.31;;;11.06;78.35
44920;BME280;30655;53.094;6.072;2022-09-17T07:24:20;101135.31;;;11.21;79.49
44920;BME280;30655;53.094;6.072;2022-09-17T07:26:34;101328.81;;;12.33;79.66
44920;BME280;30655;53.094;6.072;2022-09-17T07:33:08;101352.94;;;12.24;78.91
44920;BME280;30655;53.094;6.072;2022-09-17T07:36:03;101212.22;;;11.30;79.31
44920;BME280;30655;53.094;6.072;2022-09-17T07:38:43;101178.50;;;10.96;78.82
44920;BME280;30655;53.094;6.072;2022-09-17T07:41:35;101191.28;;;11.05;79.17
44920;BME280;30655;53.094;6.072;2022-09-17T07:47:49;101151.16;;;10.92;80.08
44920;BME280;30655;53.094;6.072;2022-09-17T07:54:19;101251.06;;;11.61;79.18
44920;BME280;30655;53.094;6.072;2022-09-17T07:57:09;101256.25;;;11.68;79.06
44920;BME280;30655;53.094;6.072;2022-09-17T07:59:57;101328.44;;;11.99;79.10
44920;BME280;30655;53.094;6.072;2022-09-17T08:02:59;101326.28;;;12.06;79.18
44920;BME280;30655;53.094;6.072;2022-09-17T08:06:05;101252.41;;;11.58;79.66
44920;BME280;30655;53.094;6.072;2022-09-17T08:09:22;101324.13;;;12.08;80.50
44920;BME280;30655;53.094;6.072;2022-09-17T08:43:49;101165.53;;;10.98;80.39
44920;BME280;30655;53.094;6.072;2022-09-17T12:12:44;101306.47;;;16.10;69.23
44920;BME280;30655;53.094;6.072;2022-09-17T12:36:56;101285.06;;;14.69;66.00
44920;BME280;30655;53.094;6.072;2022-09-17T12:40:29;101324.75;;;15.38;65.29
44920;BME280;30655;53.094;6.072;2022-09-17T12:44:03;101331.06;;;15.62;64.02
44920;BME280;30655;53.094;6.072;2022-09-17T12:51:13;101223.81;;;15.00;63.09
44920;BME280;30655;53.094;6.072;2022-09-17T13:04:37;101349.03;;;15.63;63.57
44920;BME280;30655;53.094;6.072;2022-09-17T13:17:52;101164.25;;;14.70;60.42
44920;BME280;30655;53.094;6.072;2022-09-17T13:21:01;101164.47;;;15.02;60.37
44920;BME280;30655;53.094;6.072;2022-09-17T13:27:20;101223.44;;;15.60;60.33
44920;BME280;30655;53.094;6.072;2022-09-17T13:30:24;101199.00;;;14.78;61.08
44920;BME280;30655;53.094;6.072;2022-09-17T13:37:02;101239.09;;;12.95;71.53
44920;BME280;30655;53.094;6.072;2022-09-17T13:43:34;101258.03;;;13.10;75.34
44920;BME280;30655;53.094;6.072;2022-09-17T13:46:42;101304.59;;;13.83;73.20
44920;BME280;30655;53.094;6.072;2022-09-17T14:36:14;101222.72;;;13.35;72.87
44920;BME280;30655;53.094;6.072;2022-09-17T14:42:57;101224.69;;;13.89;73.33
44920;BME280;30655;53.094;6.072;2022-09-17T14:45:37;101203.38;;;14.45;72.90
44920;BME280;30655;53.094;6.072;2022-09-17T14:59:57;101377.34;;;17.87;63.90
44920;BME280;30655;53.094;6.072;2022-09-17T15:02:57;101202.69;;;17.03;61.37
44920;BME280;30655;53.094;6.072;2022-09-17T15:05:33;101343.00;;;18.08;61.47
44920;BME280;30655;53.094;6.072;2022-09-17T15:08:31;101289.16;;;17.68;61.34
44920;BME280;30655;53.094;6.072;2022-09-17T15:14:20;101371.97;;;17.36;61.65
44920;BME280;30655;53.094;6.072;2022-09-17T15:17:17;101204.03;;;16.22;62.29
44920;BME280;30655;53.094;6.072;2022-09-17T15:20:28;101217.81;;;16.31;61.70
44920;BME280;30655;53.094;6.072;2022-09-17T15:23:19;101286.09;;;16.63;61.89
44920;BME280;30655;53.094;6.072;2022-09-17T15:26:00;101265.06;;;16.26;61.26
44920;BME280;30655;53.094;6.072;2022-09-17T15:28:45;101157.25;;;15.35;61.82
44920;BME280;30655;53.094;6.072;2022-09-17T16:42:13;101390.53;;;14.43;64.83
44920;BME280;30655;53.094;6.072;2022-09-17T16:50:52;101214.34;;;13.22;64.52
44920;BME280;30655;53.094;6.072;2022-09-17T16:58:54;101217.91;;;12.11;73.35
44920;BME280;30655;53.094;6.072;2022-09-17T17:11:59;101402.97;;;12.99;73.88
44920;BME280;30655;53.094;6.072;2022-09-17T17:20:51;101282.16;;;12.21;72.05
44920;BME280;30655;53.094;6.072;2022-09-17T19:55:28;101472.00;;;11.94;83.35
44920;BME280;30655;53.094;6.072;2022-09-17T19:58:24;101377.84;;;11.32;82.74
44920;BME280;30655;53.094;6.072;2022-09-17T20:11:02;101432.06;;;11.74;82.39
44920;BME280;30655;53.094;6.072;2022-09-17T20:14:27;101495.06;;;12.01;82.38
44920;BME280;30655;53.094;6.072;2022-09-17T20:17:46;101275.91;;;10.69;82.58
44920;BME280;30655;53.094;6.072;2022-09-17T20:24:46;101385.88;;;11.22;81.96
44920;BME280;30655;53.094;6.072;2022-09-17T20:27:57;101474.88;;;11.82;82.59
44920;BME280;30655;53.094;6.072;2022-09-17T20:31:06;101470.25;;;11.78;82.09
44920;BME280;30655;53.094;6.072;2022-09-17T20:34:03;101281.44;;;10.52;82.04
44920;BME280;30655;53.094;6.072;2022-09-17T20:40:28;101481.13;;;11.83;82.07
44920;BME280;30655;53.094;6.072;2022-09-17T20:50:09;101460.53;;;11.82;82.55
44920;BME280;30655;53.094;6.072;2022-09-17T20:58:52;101292.47;;;10.77;83.03
44920;BME280;30655;53.094;6.072;2022-09-17T21:04:45;101465.19;;;11.91;83.17
44920;BME280;30655;53.094;6.072;2022-09-17T21:07:45;101460.34;;;11.93;83.10
44920;BME280;30655;53.094;6.072;2022-09-17T21:13:36;101415.22;;;11.72;82.79
44920;BME280;30655;53.094;6.072;2022-09-17T21:36:39;101292.53;;;10.83;82.85
44920;BME280;30655;53.094;6.072;2022-09-17T21:39:14;101457.91;;;11.97;82.83
44920;BME280;30655;53.094;6.072;2022-09-17T21:42:12;101390.69;;;11.52;83.03
44920;BME280;30655;53.094;6.072;2022-09-17T22:02:14;101290.31;;;10.74;83.45
44920;BME280;30655;53.094;6.072;2022-09-17T22:05:12;101278.38;;;10.70;83.43
44920;BME280;30655;53.094;6.072;2022-09-17T22:10:48;101261.53;;;10.63;83.23
44920;BME280;30655;53.094;6.072;2022-09-17T22:11:21;101354.22;;;11.22;83.11
44920;BME280;30655;53.094;6.072;2022-09-17T22:13:53;101460.06;;;11.90;83.35
44920;BME280;30655;53.094;6.072;2022-09-17T22:16:21;101457.59;;;11.88;83.33
44920;BME280;30655;53.094;6.072;2022-09-17T22:18:50;101452.13;;;11.78;83.39
44920;BME280;30655;53.094;6.072;2022-09-17T22:21:19;101432.75;;;11.59;83.71
44920;BME280;30655;53.094;6.072;2022-09-17T22:23:46;101453.13;;;11.72;83.79
44920;BME280;30655;53.094;6.072;2022-09-17T22:26:14;101452.31;;;11.72;83.72
44920;BME280;30655;53.094;6.072;2022-09-17T22:28:41;101359.28;;;11.09;83.90
44920;BME280;30655;53.094;6.072;2022-09-17T22:31:10;101321.44;;;10.82;83.95
44920;BME280;30655;53.094;6.072;2022-09-17T22:33:38;101454.97;;;11.66;83.92
44920;BME280;30655;53.094;6.072;2022-09-17T22:36:08;101479.44;;;11.77;84.21
44920;BME280;30655;53.094;6.072;2022-09-17T22:38:36;101479.72;;;11.75;84.41
44920;BME280;30655;53.094;6.072;2022-09-17T22:41:05;101479.38;;;11.72;84.58
44920;BME280;30655;53.094;6.072;2022-09-17T22:43:32;101467.44;;;11.68;84.42
44920;BME280;30655;53.094;6.072;2022-09-17T22:45:59;101466.91;;;11.71;84.42
44920;BME280;30655;53.094;6.072;2022-09-17T22:48:26;101321.72;;;10.81;84.19
44920;BME280;30655;53.094;6.072;2022-09-17T22:50:53;101447.09;;;11.60;84.49
44920;BME280;30655;53.094;6.072;2022-09-17T22:53:21;101463.13;;;11.72;84.34
44920;BME280;30655;53.094;6.072;2022-09-17T22:55:55;101442.50;;;11.60;84.09
44920;BME280;30655;53.094;6.072;2022-09-17T22:58:22;101452.78;;;11.63;84.12
44920;BME280;30655;53.094;6.072;2022-09-17T23:00:53;101377.69;;;11.12;84.29
44920;BME280;30655;53.094;6.072;2022-09-17T23:03:20;101371.22;;;11.13;84.35
44920;BME280;30655;53.094;6.072;2022-09-17T23:05:47;101444.88;;;11.57;84.22
44920;BME280;30655;53.094;6.072;2022-09-17T23:08:14;101436.72;;;11.52;84.42
44920;BME280;30655;53.094;6.072;2022-09-17T23:10:42;101462.84;;;11.68;84.25
44920;BME280;30655;53.094;6.072;2022-09-17T23:13:09;101456.63;;;11.68;84.45
44920;BME280;30655;53.094;6.072;2022-09-17T23:15:37;101412.59;;;11.45;84.35
44920;BME280;30655;53.094;6.072;2022-09-17T23:18:05;101371.78;;;11.15;83.97
44920;BME280;30655;53.094;6.072;2022-09-17T23:20:32;101384.81;;;11.23;84.26
44920;BME280;30655;53.094;6.072;2022-09-17T23:23:08;101447.91;;;11.60;84.47
44920;BME280;30655;53.094;6.072;2022-09-17T23:25:35;101443.00;;;11.57;84.57
44920;BME280;30655;53.094;6.072;2022-09-17T23:28:04;101320.59;;;10.76;84.40
44920;BME280;30655;53.094;6.072;2022-09-17T23:30:31;101295.56;;;10.59;84.65
44920;BME280;30655;53.094;6.072;2022-09-17T23:32:57;101355.91;;;10.97;84.67
44920;BME280;30655;53.094;6.072;2022-09-17T23:35:24;101300.50;;;10.67;84.47
44920;BME280;30655;53.094;6.072;2022-09-17T23:37:54;101441.63;;;11.55;84.67
44920;BME280;30655;53.094;6.072;2022-09-17T23:40:21;101440.81;;;11.54;84.68
44920;BME280;30655;53.094;6.072;2022-09-17T23:42:48;101433.78;;;11.53;84.83
44920;BME280;30655;53.094;6.072;2022-09-17T23:45:16;101436.75;;;11.57;85.14
44920;BME280;30655;53.094;6.072;2022-09-17T23:47:43;101424.25;;;11.51;84.73
44920;BME280;30655;53.094;6.072;2022-09-17T23:50:11;101337.47;;;10.89;84.87
44920;BME280;30655;53.094;6.072;2022-09-17T23:52:38;101436.22;;;11.55;84.84
44920;BME280;30655;53.094;6.072;2022-09-17T23:55:06;101249.97;;;10.36;84.82
44920;BME280;30655;53.094;6.072;2022-09-17T23:57:43;101426.69;;;11.47;84.99
